createdAt,value
2018-09-10T00:00:21.660Z,22.50
2018-09-10T00:02:51.388Z,22.40
2018-09-10T00:05:21.024Z,22.30
2018-09-10T00:07:50.698Z,22.30
2018-09-10T00:10:20.307Z,22.30
2018-09-10T00:12:49.914Z,22.30
2018-09-10T00:15:19.577Z,22.40
2018-09-10T00:17:49.234Z,22.30
2018-09-10T00:20:18.841Z,22.10
2018-09-10T00:22:48.457Z,22.00
2018-09-10T00:25:18.042Z,22.00
2018-09-10T00:27:47.597Z,22.10
2018-09-10T00:30:17.320Z,22.40
2018-09-10T00:32:46.934Z,22.20
2018-09-10T00:35:16.575Z,22.20
2018-09-10T00:37:46.212Z,22.20
2018-09-10T00:40:15.818Z,22.10
2018-09-10T00:42:45.391Z,22.10
2018-09-10T00:45:15.042Z,21.90
2018-09-10T00:47:44.707Z,22.10
2018-09-10T00:50:14.314Z,22.20
2018-09-10T00:52:43.891Z,22.20
2018-09-10T00:55:13.452Z,22.20
2018-09-10T00:57:43.115Z,22.10
2018-09-10T01:00:12.646Z,22.20
2018-09-10T01:02:42.285Z,22.10
2018-09-10T01:05:11.884Z,22.30
2018-09-10T01:07:41.498Z,22.10
2018-09-10T01:10:11.180Z,21.90
2018-09-10T01:12:40.848Z,21.80
2018-09-10T01:15:10.422Z,21.80
2018-09-10T01:17:40.062Z,21.80
2018-09-10T01:20:09.609Z,21.90
2018-09-10T01:22:39.309Z,21.90
2018-09-10T01:25:08.924Z,21.80
2018-09-10T01:27:38.583Z,21.80
2018-09-10T01:30:09.243Z,21.80
2018-09-10T01:32:38.782Z,21.70
2018-09-10T01:35:08.636Z,21.50
2018-09-10T01:37:38.193Z,21.50
2018-09-10T01:40:07.847Z,21.60
2018-09-10T01:42:37.513Z,21.60
2018-09-10T01:45:07.212Z,21.40
2018-09-10T01:47:36.797Z,21.40
2018-09-10T01:50:06.480Z,21.30
2018-09-10T01:52:36.141Z,21.20
2018-09-10T01:55:05.878Z,21.30
2018-09-10T01:57:35.481Z,21.30
2018-09-10T02:00:05.316Z,21.40
2018-09-10T02:02:34.880Z,21.70
2018-09-10T02:05:04.569Z,21.30
2018-09-10T02:07:34.178Z,21.20
2018-09-10T02:10:03.788Z,21.30
2018-09-10T02:12:33.391Z,21.10
2018-09-10T02:15:03.019Z,21.10
2018-09-10T02:17:32.684Z,21.00
2018-09-10T02:20:02.321Z,21.20
2018-09-10T02:22:31.868Z,21.10
2018-09-10T02:25:01.624Z,20.90
2018-09-10T02:27:32.390Z,21.10
2018-09-10T02:30:01.857Z,21.00
2018-09-10T02:32:31.408Z,21.10
2018-09-10T02:35:01.035Z,21.20
2018-09-10T02:37:30.660Z,21.40
2018-09-10T02:40:00.348Z,21.10
2018-09-10T02:42:29.927Z,21.20
2018-09-10T02:44:59.492Z,21.20
2018-09-10T02:47:29.171Z,20.80
2018-09-10T02:49:58.728Z,20.90
2018-09-10T02:52:28.377Z,20.80
2018-09-10T02:54:58.090Z,20.60
2018-09-10T02:57:27.773Z,20.60
2018-09-10T02:59:57.412Z,20.40
2018-09-10T03:02:27.110Z,20.50
2018-09-10T03:04:56.687Z,20.70
2018-09-10T03:07:26.533Z,20.60
2018-09-10T03:09:56.105Z,20.50
2018-09-10T03:12:25.834Z,20.40
2018-09-10T03:14:55.555Z,20.50
2018-09-10T03:17:25.182Z,20.40
2018-09-10T03:19:54.932Z,20.30
2018-09-10T03:22:24.603Z,20.00
2018-09-10T03:24:54.193Z,20.20
2018-09-10T03:27:23.775Z,20.30
2018-09-10T03:29:53.543Z,20.20
2018-09-10T03:32:23.102Z,20.30
2018-09-10T03:34:52.731Z,20.40
2018-09-10T03:37:22.355Z,20.30
2018-09-10T03:39:51.964Z,20.20
2018-09-10T03:42:21.545Z,20.30
2018-09-10T03:44:51.169Z,20.30
2018-09-10T03:47:20.762Z,20.30
2018-09-10T03:49:50.368Z,20.30
2018-09-10T03:52:20.038Z,20.40
2018-09-10T03:54:49.629Z,20.20
2018-09-10T03:57:19.314Z,20.20
2018-09-10T03:59:48.875Z,20.50
2018-09-10T04:02:18.470Z,20.60
2018-09-10T04:04:48.137Z,20.20
2018-09-10T04:07:17.767Z,20.30
2018-09-10T04:09:47.361Z,20.50
2018-09-10T04:12:16.962Z,20.40
2018-09-10T04:14:46.677Z,20.60
2018-09-10T04:17:16.437Z,20.50
2018-09-10T04:19:46.015Z,20.30
2018-09-10T04:22:15.652Z,20.50
2018-09-10T04:24:45.300Z,20.40
2018-09-10T04:27:14.905Z,20.50
2018-09-10T04:29:44.601Z,20.50
2018-09-10T04:32:14.288Z,20.40
2018-09-10T04:34:43.901Z,20.40
2018-09-10T04:37:13.465Z,20.40
2018-09-10T04:39:43.102Z,20.20
2018-09-10T04:42:12.796Z,20.10
2018-09-10T04:44:42.400Z,20.30
2018-09-10T04:47:11.980Z,20.20
2018-09-10T04:49:41.651Z,20.20
2018-09-10T04:52:11.219Z,20.20
2018-09-10T04:54:40.793Z,20.20
2018-09-10T04:57:10.388Z,20.20
2018-09-10T04:59:40.125Z,20.10
2018-09-10T05:02:09.742Z,20.10
2018-09-10T05:04:39.377Z,20.30
2018-09-10T05:07:09.297Z,20.40
2018-09-10T05:09:38.915Z,20.60
2018-09-10T05:12:08.525Z,20.70
2018-09-10T05:14:38.105Z,20.50
2018-09-10T05:17:07.750Z,20.50
2018-09-10T05:19:37.375Z,20.60
2018-09-10T05:22:07.191Z,20.60
2018-09-10T05:24:36.760Z,20.90
2018-09-10T05:27:06.382Z,21.00
2018-09-10T05:29:35.977Z,21.00
2018-09-10T05:32:05.591Z,21.20
2018-09-10T05:34:35.247Z,21.20
2018-09-10T05:37:04.872Z,21.30
2018-09-10T05:39:34.485Z,21.30
2018-09-10T05:42:04.114Z,21.40
2018-09-10T05:44:33.785Z,21.40
2018-09-10T05:47:03.450Z,21.30
2018-09-10T05:49:33.482Z,21.30
2018-09-10T05:52:03.081Z,21.30
2018-09-10T05:54:32.674Z,21.30
2018-09-10T05:57:02.287Z,21.30
2018-09-10T05:59:31.891Z,21.30
2018-09-10T06:02:01.523Z,21.40
2018-09-10T06:04:31.146Z,21.40
2018-09-10T06:07:00.765Z,21.40
2018-09-10T06:09:30.424Z,21.30
2018-09-10T06:12:00.065Z,21.20
2018-09-10T06:14:29.638Z,21.30
2018-09-10T06:16:59.229Z,21.30
2018-09-10T06:19:29.126Z,21.40
2018-09-10T06:21:58.700Z,21.50
2018-09-10T06:24:28.337Z,21.50
2018-09-10T06:26:57.968Z,21.60
2018-09-10T06:29:27.520Z,21.60
2018-09-10T06:31:57.293Z,21.70
2018-09-10T06:34:27.031Z,21.90
2018-09-10T06:36:56.948Z,22.00
2018-09-10T06:39:26.728Z,22.00
2018-09-10T06:41:56.316Z,22.00
2018-09-10T06:44:25.907Z,22.10
2018-09-10T06:46:55.490Z,22.20
2018-09-10T06:49:25.092Z,22.30
2018-09-10T06:51:54.798Z,22.40
2018-09-10T06:54:24.423Z,22.50
2018-09-10T06:56:54.017Z,22.50
2018-09-10T06:59:23.657Z,22.60
2018-09-10T07:01:53.318Z,22.70
2018-09-10T07:04:22.904Z,22.80
2018-09-10T07:06:52.891Z,23.00
2018-09-10T07:09:22.532Z,23.30
2018-09-10T07:11:52.167Z,23.20
2018-09-10T07:14:21.792Z,23.40
2018-09-10T07:16:51.483Z,23.40
2018-09-10T07:19:21.082Z,23.30
2018-09-10T07:21:50.766Z,23.50
2018-09-10T07:24:20.416Z,23.60
2018-09-10T07:26:50.025Z,23.50
2018-09-10T07:29:19.661Z,23.10
2018-09-10T07:31:49.307Z,23.30
2018-09-10T07:34:18.947Z,23.50
2018-09-10T07:36:48.575Z,23.60
2018-09-10T07:39:18.180Z,23.70
2018-09-10T07:41:47.820Z,23.80
2018-09-10T07:44:17.537Z,23.80
2018-09-10T07:46:47.261Z,23.90
2018-09-10T07:49:17.479Z,24.00
2018-09-10T07:51:47.088Z,24.10
2018-09-10T07:54:16.717Z,24.20
2018-09-10T07:56:46.323Z,24.10
2018-09-10T07:59:15.931Z,24.10
2018-09-10T08:01:45.517Z,24.40
2018-09-10T08:04:15.177Z,24.50
2018-09-10T08:06:44.762Z,24.60
2018-09-10T08:09:17.270Z,24.40
2018-09-10T08:11:46.947Z,24.60
2018-09-10T08:14:16.542Z,24.60
2018-09-10T08:16:46.190Z,24.40
2018-09-10T08:19:15.811Z,24.70
2018-09-10T08:21:45.459Z,24.90
2018-09-10T08:24:15.268Z,24.90
2018-09-10T08:26:44.754Z,25.20
2018-09-10T08:29:14.377Z,24.70
2018-09-10T08:31:44.083Z,24.50
2018-09-10T08:34:13.699Z,25.00
2018-09-10T08:36:43.402Z,25.40
2018-09-10T08:39:13.044Z,25.50
2018-09-10T08:41:42.576Z,25.60
2018-09-10T08:44:12.255Z,25.60
2018-09-10T08:46:41.844Z,25.60
2018-09-10T08:49:11.509Z,25.40
2018-09-10T08:51:41.133Z,25.40
2018-09-10T08:54:10.910Z,25.70
2018-09-10T08:56:40.460Z,25.50
2018-09-10T08:59:10.239Z,25.20
2018-09-10T09:01:39.802Z,25.30
2018-09-10T09:04:09.377Z,25.40
2018-09-10T09:06:38.970Z,25.50
2018-09-10T09:09:09.539Z,26.10
2018-09-10T09:11:39.665Z,26.00
2018-09-10T09:14:09.649Z,25.90
2018-09-10T09:16:39.292Z,26.40
2018-09-10T09:19:08.900Z,26.20
2018-09-10T09:21:38.485Z,25.90
2018-09-10T09:24:08.124Z,25.80
2018-09-10T09:26:37.761Z,25.70
2018-09-10T09:29:07.514Z,25.80
2018-09-10T09:31:37.155Z,25.90
2018-09-10T09:34:06.781Z,25.90
2018-09-10T09:36:41.658Z,26.10
2018-09-10T09:39:16.377Z,26.00
2018-09-10T09:41:50.992Z,26.10
2018-09-10T09:44:25.560Z,25.90
2018-09-10T09:46:55.302Z,26.00
2018-09-10T09:49:24.911Z,26.00
2018-09-10T09:51:54.481Z,26.50
2018-09-10T09:54:24.128Z,26.20
2018-09-10T09:56:53.716Z,26.20
2018-09-10T09:59:23.310Z,26.40
2018-09-10T10:01:57.631Z,26.20
2018-09-10T10:04:28.250Z,26.80
2018-09-10T10:06:58.689Z,26.70
2018-09-10T10:09:29.688Z,27.10
2018-09-10T10:12:00.320Z,27.30
2018-09-10T10:14:30.783Z,26.50
2018-09-10T10:17:02.269Z,26.50
2018-09-10T10:19:32.727Z,26.70
2018-09-10T10:22:03.251Z,26.80
2018-09-10T10:24:34.641Z,26.50
2018-09-10T10:27:05.104Z,26.50
2018-09-10T10:29:36.161Z,26.80
2018-09-10T10:32:07.880Z,26.80
2018-09-10T10:34:38.324Z,26.80
2018-09-10T10:37:13.693Z,27.10
2018-09-10T10:39:45.112Z,26.90
2018-09-10T10:42:16.269Z,27.10
2018-09-10T10:44:48.103Z,27.40
2018-09-10T10:47:19.388Z,28.00
2018-09-10T10:49:49.769Z,28.40
2018-09-10T10:52:20.238Z,28.60
2018-09-10T10:54:51.815Z,28.10
2018-09-10T10:57:22.589Z,28.40
2018-09-10T10:59:54.087Z,28.20
2018-09-10T11:02:26.313Z,28.40
2018-09-10T11:04:56.796Z,28.40
2018-09-10T11:07:27.307Z,28.30
2018-09-10T11:09:56.913Z,28.10
2018-09-10T11:12:26.559Z,28.00
2018-09-10T11:14:56.161Z,27.70
2018-09-10T11:17:27.580Z,27.60
2018-09-10T11:20:45.715Z,27.50
2018-09-10T11:23:17.600Z,27.80
2018-09-10T11:25:48.149Z,27.90
2018-09-10T11:28:18.545Z,28.50
2018-09-10T11:30:49.450Z,28.90
2018-09-10T11:33:21.463Z,28.00
2018-09-10T11:35:51.925Z,28.10
2018-09-10T11:38:23.355Z,28.10
2018-09-10T11:41:18.769Z,28.10
2018-09-10T11:43:51.306Z,28.50
2018-09-10T11:46:23.746Z,29.60
2018-09-10T11:48:56.025Z,29.10
2018-09-10T11:51:26.590Z,28.70
2018-09-10T11:53:57.535Z,29.00
2018-09-10T11:56:29.934Z,28.80
2018-09-10T11:59:01.203Z,29.20
2018-09-10T12:01:35.587Z,29.90
2018-09-10T12:04:06.557Z,30.20
2018-09-10T12:06:38.186Z,29.90
2018-09-10T12:09:11.957Z,29.40
2018-09-10T12:11:42.471Z,30.30
2018-09-10T12:14:12.924Z,30.40
2018-09-10T12:16:43.253Z,30.70
2018-09-10T12:19:12.856Z,30.80
2018-09-10T12:21:42.438Z,30.50
2018-09-10T12:24:11.980Z,30.70
2018-09-10T12:26:41.616Z,30.20
2018-09-10T12:29:11.309Z,29.20
2018-09-10T12:31:40.933Z,29.40
2018-09-10T12:34:10.480Z,29.10
2018-09-10T12:36:40.170Z,29.00
2018-09-10T12:39:11.287Z,29.30
2018-09-10T12:41:41.373Z,29.30
2018-09-10T12:44:11.017Z,30.20
2018-09-10T12:46:40.673Z,31.10
2018-09-10T12:49:10.355Z,31.60
2018-09-10T12:51:39.968Z,31.40
2018-09-10T12:54:09.646Z,30.40
2018-09-10T12:56:39.411Z,30.70
2018-09-10T12:59:09.058Z,31.00
2018-09-10T13:01:38.781Z,31.00
2018-09-10T13:04:08.645Z,31.90
2018-09-10T13:06:38.234Z,31.90
2018-09-10T13:09:08.524Z,30.70
2018-09-10T13:11:38.204Z,31.30
2018-09-10T13:14:07.909Z,30.00
2018-09-10T13:16:37.554Z,30.10
2018-09-10T13:19:07.613Z,30.80
2018-09-10T13:21:37.309Z,32.10
2018-09-10T13:24:07.019Z,32.70
2018-09-10T13:26:36.739Z,32.10
2018-09-10T13:29:06.681Z,31.60
2018-09-10T13:31:36.339Z,32.10
2018-09-10T13:34:06.027Z,31.50
2018-09-10T13:36:35.794Z,31.40
2018-09-10T13:39:06.682Z,31.60
2018-09-10T13:41:53.823Z,31.10
2018-09-10T13:44:23.636Z,31.30
2018-09-10T13:46:53.421Z,32.50
2018-09-10T13:49:23.248Z,32.30
2018-09-10T13:51:52.840Z,32.60
2018-09-10T13:54:22.686Z,31.70
2018-09-10T13:56:52.445Z,30.70
2018-09-10T13:59:22.012Z,31.30
2018-09-10T14:01:51.615Z,30.90
2018-09-10T14:04:21.286Z,30.70
2018-09-10T14:06:51.110Z,30.20
2018-09-10T14:09:20.876Z,30.60
2018-09-10T14:11:50.581Z,31.00
2018-09-10T14:14:20.330Z,30.90
2018-09-10T14:16:51.508Z,30.60
2018-09-10T14:19:21.221Z,30.70
2018-09-10T14:21:51.448Z,30.60
2018-09-10T14:24:21.162Z,31.70
2018-09-10T14:26:50.944Z,31.70
2018-09-10T14:29:20.622Z,32.50
2018-09-10T14:31:50.297Z,31.00
2018-09-10T14:34:20.008Z,31.70
2018-09-10T14:36:49.671Z,30.80
2018-09-10T14:39:19.361Z,29.90
2018-09-10T14:41:49.005Z,29.50
2018-09-10T14:44:18.706Z,30.00
2018-09-10T14:46:48.482Z,30.60
2018-09-10T14:49:18.140Z,30.40
2018-09-10T14:51:47.785Z,31.10
2018-09-10T14:54:17.444Z,31.40
2018-09-10T14:56:47.343Z,31.80
2018-09-10T14:59:17.026Z,32.60
2018-09-10T15:01:47.116Z,33.00
2018-09-10T15:04:16.882Z,32.90
2018-09-10T15:06:46.533Z,32.70
2018-09-10T15:09:16.299Z,32.90
2018-09-10T15:11:45.937Z,33.30
2018-09-10T15:14:15.547Z,33.80
2018-09-10T15:16:45.240Z,32.80
2018-09-10T15:19:15.291Z,32.80
2018-09-10T15:21:45.039Z,32.40
2018-09-10T15:24:14.797Z,32.30
2018-09-10T15:26:44.751Z,31.20
2018-09-10T15:29:14.513Z,31.00
2018-09-10T15:31:44.282Z,29.80
2018-09-10T15:34:13.984Z,29.80
2018-09-10T15:36:43.842Z,30.40
2018-09-10T15:39:13.386Z,31.00
2018-09-10T15:41:43.125Z,32.90
2018-09-10T15:44:12.844Z,33.10
2018-09-10T15:46:42.589Z,33.50
2018-09-10T15:49:12.472Z,31.80
2018-09-10T15:51:42.522Z,31.50
2018-09-10T15:54:12.696Z,31.60
2018-09-10T15:56:43.048Z,31.40
2018-09-10T15:59:13.661Z,31.70
2018-09-10T16:01:44.000Z,31.60
2018-09-10T16:04:14.399Z,31.30
2018-09-10T16:06:44.802Z,31.10
2018-09-10T16:09:15.240Z,31.60
2018-09-10T16:11:45.689Z,32.30
2018-09-10T16:14:16.086Z,32.90
2018-09-10T16:16:46.541Z,32.90
2018-09-10T16:19:21.204Z,32.60
2018-09-10T16:21:52.021Z,32.10
2018-09-10T16:24:23.813Z,32.30
2018-09-10T16:26:54.270Z,31.70
2018-09-10T16:29:24.646Z,31.60
2018-09-10T16:31:55.557Z,31.70
2018-09-10T16:34:26.070Z,31.70
2018-09-10T16:36:56.470Z,31.80
2018-09-10T16:39:27.050Z,31.80
2018-09-10T16:41:57.462Z,31.40
2018-09-10T16:44:27.865Z,30.70
2018-09-10T16:46:58.287Z,30.20
2018-09-10T16:49:28.839Z,29.80
2018-09-10T16:51:59.191Z,29.50
2018-09-10T16:54:29.817Z,29.30
2018-09-10T16:57:00.373Z,29.10
2018-09-10T16:59:31.392Z,29.00
2018-09-10T17:02:01.784Z,28.90
2018-09-10T17:04:32.240Z,28.80
2018-09-10T17:07:02.731Z,28.70
2018-09-10T17:09:33.265Z,28.60
2018-09-10T17:12:03.826Z,28.60
2018-09-10T17:14:36.889Z,28.60
2018-09-10T17:17:08.503Z,28.40
2018-09-10T17:19:39.290Z,28.50
2018-09-10T17:22:09.777Z,28.50
2018-09-10T17:24:41.086Z,28.30
2018-09-10T17:27:11.732Z,27.80
2018-09-10T17:29:42.119Z,27.70
2018-09-10T17:32:12.530Z,27.50
2018-09-10T17:34:43.148Z,27.50
2018-09-10T17:37:15.228Z,27.40
2018-09-10T17:39:45.756Z,27.30
2018-09-10T17:42:16.426Z,27.20
2018-09-10T17:44:46.889Z,27.10
2018-09-10T17:47:18.526Z,27.00
2018-09-10T17:49:48.924Z,26.90
2018-09-10T17:52:19.621Z,26.80
2018-09-10T17:54:50.187Z,26.60
2018-09-10T17:57:20.641Z,26.60
2018-09-10T17:59:51.168Z,26.70
2018-09-10T18:02:21.668Z,26.60
2018-09-10T18:04:52.145Z,26.50
2018-09-10T18:07:23.957Z,26.50
2018-09-10T18:09:55.647Z,26.40
2018-09-10T18:12:26.121Z,26.40
2018-09-10T18:14:57.778Z,26.40
2018-09-10T18:17:28.454Z,26.30
2018-09-10T18:20:00.122Z,26.30
2018-09-10T18:22:30.616Z,26.30
2018-09-10T18:25:01.999Z,26.30
2018-09-10T18:27:32.374Z,26.30
2018-09-10T18:30:02.823Z,26.40
2018-09-10T18:32:33.320Z,26.20
2018-09-10T18:35:04.940Z,26.00
2018-09-10T18:37:35.380Z,26.10
2018-09-10T18:40:07.062Z,26.30
2018-09-10T18:42:37.558Z,26.20
2018-09-10T18:45:08.993Z,26.10
2018-09-10T18:47:42.075Z,26.10
2018-09-10T18:50:12.736Z,26.10
2018-09-10T18:52:43.545Z,26.00
2018-09-10T18:55:14.355Z,26.00
2018-09-10T18:57:44.832Z,25.90
2018-09-10T19:00:15.612Z,25.60
2018-09-10T19:02:46.210Z,25.80
2018-09-10T19:05:17.622Z,25.40
2018-09-10T19:07:49.028Z,25.40
2018-09-10T19:10:20.515Z,25.30
2018-09-10T19:12:51.020Z,25.30
2018-09-10T19:15:21.517Z,25.30
2018-09-10T19:17:52.881Z,25.40
2018-09-10T19:20:23.450Z,25.50
2018-09-10T19:22:54.324Z,25.50
2018-09-10T19:25:25.638Z,25.20
2018-09-10T19:27:56.053Z,25.40
2018-09-10T19:30:26.555Z,25.50
2018-09-10T19:32:58.262Z,25.40
2018-09-10T19:35:29.688Z,25.40
2018-09-10T19:38:00.128Z,25.30
2018-09-10T19:40:31.391Z,25.40
2018-09-10T19:43:02.866Z,25.40
2018-09-10T19:45:34.733Z,25.50
2018-09-10T19:48:05.253Z,25.10
2018-09-10T19:50:37.568Z,25.10
2018-09-10T19:53:08.561Z,25.10
2018-09-10T19:55:39.092Z,25.00
2018-09-10T19:58:09.637Z,24.90
2018-09-10T20:00:40.172Z,25.00
2018-09-10T20:03:10.615Z,24.90
2018-09-10T20:05:41.674Z,24.80
2018-09-10T20:08:12.152Z,24.90
2018-09-10T20:10:42.739Z,24.80
2018-09-10T20:13:13.308Z,24.60
2018-09-10T20:15:43.878Z,27.20
2018-09-10T20:18:14.265Z,24.80
2018-09-10T20:20:45.782Z,24.90
2018-09-10T20:23:16.202Z,24.60
2018-09-10T20:25:46.679Z,24.60
2018-09-10T20:28:17.146Z,24.50
2018-09-10T20:30:47.688Z,24.50
2018-09-10T20:33:18.112Z,24.50
2018-09-10T20:35:48.583Z,24.40
2018-09-10T20:38:19.033Z,24.40
2018-09-10T20:40:49.455Z,24.50
2018-09-10T20:43:19.787Z,24.60
2018-09-10T20:45:50.368Z,24.60
2018-09-10T20:48:20.853Z,24.40
2018-09-10T20:50:51.270Z,24.40
2018-09-10T20:53:21.716Z,24.30
2018-09-10T20:55:52.061Z,24.30
2018-09-10T20:58:22.444Z,24.50
2018-09-10T21:00:52.795Z,24.50
2018-09-10T21:03:23.229Z,24.30
2018-09-10T21:05:53.639Z,24.40
2018-09-10T21:08:24.044Z,24.50
2018-09-10T21:10:54.328Z,24.40
2018-09-10T21:13:24.604Z,24.50
2018-09-10T21:15:54.884Z,24.50
2018-09-10T21:18:25.151Z,24.50
2018-09-10T21:20:55.020Z,24.30
2018-09-10T21:23:24.935Z,24.30
2018-09-10T21:25:54.935Z,24.20
2018-09-10T21:28:24.904Z,24.10
2018-09-10T21:30:54.539Z,24.10
2018-09-10T21:33:24.166Z,23.90
2018-09-10T21:35:53.788Z,23.80
2018-09-10T21:38:23.472Z,23.50
2018-09-10T21:40:53.061Z,23.70
2018-09-10T21:43:22.667Z,23.40
2018-09-10T21:45:52.788Z,23.40
2018-09-10T21:48:22.397Z,23.60
2018-09-10T21:50:51.978Z,23.50
2018-09-10T21:53:21.583Z,23.40
2018-09-10T21:55:51.160Z,23.30
2018-09-10T21:58:20.827Z,23.40
2018-09-10T22:00:55.362Z,23.70
2018-09-10T22:03:25.033Z,23.90
2018-09-10T22:05:55.311Z,23.90
2018-09-10T22:08:25.243Z,24.00
2018-09-10T22:10:54.847Z,24.00
2018-09-10T22:13:24.420Z,23.80
2018-09-10T22:15:54.083Z,23.80
2018-09-10T22:18:23.722Z,23.90
2018-09-10T22:20:53.350Z,23.90
2018-09-10T22:23:22.992Z,23.80
2018-09-10T22:25:52.588Z,23.90
2018-09-10T22:28:22.208Z,24.00
2018-09-10T22:30:51.782Z,23.80
2018-09-10T22:33:21.430Z,23.60
2018-09-10T22:35:51.014Z,23.50
2018-09-10T22:38:20.609Z,23.60
2018-09-10T22:40:50.241Z,23.60
2018-09-10T22:43:19.825Z,23.40
2018-09-10T22:45:49.495Z,23.40
2018-09-10T22:48:19.141Z,23.20
2018-09-10T22:50:48.738Z,23.20
2018-09-10T22:53:18.341Z,23.30
2018-09-10T22:55:48.000Z,23.30
2018-09-10T22:58:17.698Z,23.10
2018-09-10T23:00:47.329Z,23.20
2018-09-10T23:03:16.912Z,23.20
2018-09-10T23:05:46.492Z,23.40
2018-09-10T23:08:16.088Z,23.50
2018-09-10T23:10:45.704Z,23.20
2018-09-10T23:13:15.300Z,23.00
2018-09-10T23:15:44.976Z,22.90
2018-09-10T23:18:14.548Z,22.90
2018-09-10T23:20:44.211Z,23.00
2018-09-10T23:23:13.777Z,23.00
2018-09-10T23:25:43.432Z,23.10
2018-09-10T23:28:13.244Z,23.10
2018-09-10T23:30:42.897Z,23.20
2018-09-10T23:33:12.523Z,23.30
2018-09-10T23:35:42.201Z,23.30
2018-09-10T23:38:11.878Z,23.30
2018-09-10T23:40:41.715Z,23.20
2018-09-10T23:43:11.376Z,23.30
2018-09-10T23:45:41.061Z,23.10
2018-09-10T23:48:10.672Z,23.20
2018-09-10T23:50:40.245Z,23.40
2018-09-10T23:53:09.834Z,23.30
2018-09-10T23:55:39.481Z,23.40
2018-09-10T23:58:09.092Z,23.20
